sensor_id;sensor_type;location;lat;lon;timestamp;temperature;humidity
40556;DHT22;26250;45.422;11.100;2022-12-11T08:31:19;10.50;95.60
40556;DHT22;26250;45.422;11.100;2022-12-11T08:33:47;10.50;95.40
40556;DHT22;26250;45.422;11.100;2022-12-11T08:36:17;10.60;97.30
40556;DHT22;26250;45.422;11.100;2022-12-11T08:38:45;10.90;97.70
40556;DHT22;26250;45.422;11.100;2022-12-11T08:41:14;10.90;96.20
40556;DHT22;26250;45.422;11.100;2022-12-11T08:43:41;10.90;97.00
40556;DHT22;26250;45.422;11.100;2022-12-11T08:46:11;10.80;96.40
40556;DHT22;26250;45.422;11.100;2022-12-11T08:48:40;10.90;97.90
40556;DHT22;26250;45.422;11.100;2022-12-11T08:51:11;10.70;95.20
40556;DHT22;26250;45.422;11.100;2022-12-11T08:53:39;10.60;95.00
40556;DHT22;26250;45.422;11.100;2022-12-11T08:56:14;10.60;95.00
40556;DHT22;26250;45.422;11.100;2022-12-11T08:58:42;10.50;95.20
40556;DHT22;26250;45.422;11.100;2022-12-11T09:01:12;10.40;95.50
40556;DHT22;26250;45.422;11.100;2022-12-11T09:03:40;10.50;95.50
40556;DHT22;26250;45.422;11.100;2022-12-11T09:06:10;10.50;95.50
40556;DHT22;26250;45.422;11.100;2022-12-11T09:08:38;10.50;95.40
40556;DHT22;26250;45.422;11.100;2022-12-11T09:11:07;10.50;95.20
40556;DHT22;26250;45.422;11.100;2022-12-11T09:13:38;10.60;96.40
40556;DHT22;26250;45.422;11.100;2022-12-11T09:16:10;10.80;99.30
40556;DHT22;26250;45.422;11.100;2022-12-11T09:18:38;11.00;99.80
40556;DHT22;26250;45.422;11.100;2022-12-11T09:21:09;11.20;99.60
40556;DHT22;26250;45.422;11.100;2022-12-11T09:23:36;11.40;99.70
40556;DHT22;26250;45.422;11.100;2022-12-11T09:26:08;11.40;98.80
40556;DHT22;26250;45.422;11.100;2022-12-11T09:28:37;11.30;97.60
40556;DHT22;26250;45.422;11.100;2022-12-11T09:31:15;11.40;98.70
40556;DHT22;26250;45.422;11.100;2022-12-11T09:33:43;11.50;99.10
40556;DHT22;26250;45.422;11.100;2022-12-11T09:36:10;11.60;98.70
40556;DHT22;26250;45.422;11.100;2022-12-11T09:38:37;11.50;97.80
40556;DHT22;26250;45.422;11.100;2022-12-11T09:46:35;11.60;97.90
40556;DHT22;26250;45.422;11.100;2022-12-11T09:49:04;11.60;98.20
40556;DHT22;26250;45.422;11.100;2022-12-11T09:52:04;11.70;97.90
40556;DHT22;26250;45.422;11.100;2022-12-11T09:54:27;11.60;98.40
40556;DHT22;26250;45.422;11.100;2022-12-11T09:57:01;11.70;98.70
40556;DHT22;26250;45.422;11.100;2022-12-11T09:59:54;11.60;99.00
40556;DHT22;26250;45.422;11.100;2022-12-11T10:10:42;11.80;99.30
40556;DHT22;26250;45.422;11.100;2022-12-11T10:18:46;11.70;98.90
40556;DHT22;26250;45.422;11.100;2022-12-11T10:21:15;11.80;98.40
40556;DHT22;26250;45.422;11.100;2022-12-11T10:24:03;11.70;99.10
40556;DHT22;26250;45.422;11.100;2022-12-11T10:26:31;11.70;98.10
40556;DHT22;26250;45.422;11.100;2022-12-11T10:28:59;11.60;98.10
40556;DHT22;26250;45.422;11.100;2022-12-11T10:34:34;11.60;97.40
40556;DHT22;26250;45.422;11.100;2022-12-11T10:37:01;11.50;96.20
40556;DHT22;26250;45.422;11.100;2022-12-11T10:39:28;11.40;97.40
40556;DHT22;26250;45.422;11.100;2022-12-11T10:41:55;11.40;98.10
40556;DHT22;26250;45.422;11.100;2022-12-11T10:44:27;11.50;97.70
40556;DHT22;26250;45.422;11.100;2022-12-11T10:49:37;11.50;98.40
40556;DHT22;26250;45.422;11.100;2022-12-11T10:52:19;11.50;99.90
40556;DHT22;26250;45.422;11.100;2022-12-11T10:54:56;11.50;97.80
40556;DHT22;26250;45.422;11.100;2022-12-11T10:57:31;11.50;97.50
40556;DHT22;26250;45.422;11.100;2022-12-11T10:59:59;11.50;98.20
40556;DHT22;26250;45.422;11.100;2022-12-11T11:02:38;11.50;98.90
40556;DHT22;26250;45.422;11.100;2022-12-11T11:05:16;11.50;97.20
40556;DHT22;26250;45.422;11.100;2022-12-11T11:08:12;11.40;97.80
40556;DHT22;26250;45.422;11.100;2022-12-11T11:10:59;11.40;97.90
40556;DHT22;26250;45.422;11.100;2022-12-11T11:13:28;11.30;98.20
40556;DHT22;26250;45.422;11.100;2022-12-11T11:16:04;11.20;96.70
40556;DHT22;26250;45.422;11.100;2022-12-11T11:18:33;11.10;96.50
40556;DHT22;26250;45.422;11.100;2022-12-11T11:21:02;11.00;98.20
40556;DHT22;26250;45.422;11.100;2022-12-11T11:23:29;11.20;99.90
40556;DHT22;26250;45.422;11.100;2022-12-11T11:26:06;11.30;98.30
40556;DHT22;26250;45.422;11.100;2022-12-11T11:28:45;11.30;98.90
40556;DHT22;26250;45.422;11.100;2022-12-11T11:31:15;11.40;97.20
40556;DHT22;26250;45.422;11.100;2022-12-11T11:36:24;11.40;98.90
40556;DHT22;26250;45.422;11.100;2022-12-11T11:44:17;11.60;96.70
40556;DHT22;26250;45.422;11.100;2022-12-11T11:46:51;11.50;96.50
40556;DHT22;26250;45.422;11.100;2022-12-11T11:52:14;11.40;96.70
40556;DHT22;26250;45.422;11.100;2022-12-11T12:00:32;11.70;95.60
40556;DHT22;26250;45.422;11.100;2022-12-11T12:03:11;11.60;96.40
40556;DHT22;26250;45.422;11.100;2022-12-11T12:14:01;11.00;93.30
40556;DHT22;26250;45.422;11.100;2022-12-11T12:23:14;10.30;94.00
40556;DHT22;26250;45.422;11.100;2022-12-11T12:25:51;10.20;93.90
40556;DHT22;26250;45.422;11.100;2022-12-11T12:39:26;9.90;94.10
40556;DHT22;26250;45.422;11.100;2022-12-11T12:44:52;9.80;94.40
40556;DHT22;26250;45.422;11.100;2022-12-11T12:47:29;9.80;94.20
40556;DHT22;26250;45.422;11.100;2022-12-11T12:49:58;9.70;94.60
40556;DHT22;26250;45.422;11.100;2022-12-11T12:52:38;9.70;94.60
40556;DHT22;26250;45.422;11.100;2022-12-11T12:55:19;9.50;95.40
40556;DHT22;26250;45.422;11.100;2022-12-11T12:57:59;9.50;95.20
40556;DHT22;26250;45.422;11.100;2022-12-11T13:02:58;9.50;95.00
40556;DHT22;26250;45.422;11.100;2022-12-11T13:05:32;9.50;94.70
40556;DHT22;26250;45.422;11.100;2022-12-11T13:08:04;9.40;94.90
40556;DHT22;26250;45.422;11.100;2022-12-11T13:10:34;9.20;95.40
40556;DHT22;26250;45.422;11.100;2022-12-11T13:13:03;9.30;95.60
40556;DHT22;26250;45.422;11.100;2022-12-11T13:15:32;9.20;96.10
40556;DHT22;26250;45.422;11.100;2022-12-11T13:18:01;9.20;96.50
40556;DHT22;26250;45.422;11.100;2022-12-11T13:20:31;9.30;96.30
40556;DHT22;26250;45.422;11.100;2022-12-11T13:25:46;9.30;96.40
40556;DHT22;26250;45.422;11.100;2022-12-11T13:33:49;9.10;95.90
40556;DHT22;26250;45.422;11.100;2022-12-11T13:39:15;8.80;96.20
40556;DHT22;26250;45.422;11.100;2022-12-11T13:41:46;8.70;96.20
40556;DHT22;26250;45.422;11.100;2022-12-11T13:44:22;8.70;95.60
40556;DHT22;26250;45.422;11.100;2022-12-11T13:46:50;8.70;95.40
40556;DHT22;26250;45.422;11.100;2022-12-11T13:49:33;8.60;95.00
40556;DHT22;26250;45.422;11.100;2022-12-11T13:52:01;8.60;95.20
40556;DHT22;26250;45.422;11.100;2022-12-11T13:54:30;8.60;95.50
40556;DHT22;26250;45.422;11.100;2022-12-11T13:59:30;8.40;95.40
40556;DHT22;26250;45.422;11.100;2022-12-11T14:02:04;8.60;94.70
40556;DHT22;26250;45.422;11.100;2022-12-11T14:04:36;8.40;95.20
40556;DHT22;26250;45.422;11.100;2022-12-11T14:07:06;8.40;95.60
40556;DHT22;26250;45.422;11.100;2022-12-11T19:18:10;9.20;93.40
40556;DHT22;26250;45.422;11.100;2022-12-11T19:20:37;9.30;93.60
40556;DHT22;26250;45.422;11.100;2022-12-11T19:23:15;9.40;93.30
40556;DHT22;26250;45.422;11.100;2022-12-11T19:25:45;9.40;93.20
40556;DHT22;26250;45.422;11.100;2022-12-11T19:28:12;9.40;93.20
40556;DHT22;26250;45.422;11.100;2022-12-11T19:30:46;9.10;93.60
40556;DHT22;26250;45.422;11.100;2022-12-11T19:33:16;8.70;94.20
40556;DHT22;26250;45.422;11.100;2022-12-11T19:35:43;8.70;94.30
40556;DHT22;26250;45.422;11.100;2022-12-11T19:38:11;8.70;94.40
40556;DHT22;26250;45.422;11.100;2022-12-11T19:40:42;8.80;93.80
40556;DHT22;26250;45.422;11.100;2022-12-11T19:43:09;9.00;93.60
40556;DHT22;26250;45.422;11.100;2022-12-11T19:45:36;9.20;93.30
40556;DHT22;26250;45.422;11.100;2022-12-11T19:48:04;9.20;93.00
40556;DHT22;26250;45.422;11.100;2022-12-11T19:50:34;9.20;93.50
40556;DHT22;26250;45.422;11.100;2022-12-11T19:53:02;9.00;93.70
40556;DHT22;26250;45.422;11.100;2022-12-11T19:55:31;9.10;93.20
40556;DHT22;26250;45.422;11.100;2022-12-11T19:57:58;9.10;93.20
40556;DHT22;26250;45.422;11.100;2022-12-11T20:00:25;9.20;92.60
40556;DHT22;26250;45.422;11.100;2022-12-11T20:02:51;8.70;93.00
40556;DHT22;26250;45.422;11.100;2022-12-11T20:05:22;8.70;93.30
40556;DHT22;26250;45.422;11.100;2022-12-11T20:07:48;8.60;93.50
40556;DHT22;26250;45.422;11.100;2022-12-11T20:10:15;8.60;93.30
40556;DHT22;26250;45.422;11.100;2022-12-11T20:12:42;8.70;93.10
40556;DHT22;26250;45.422;11.100;2022-12-11T20:15:09;8.90;92.60
40556;DHT22;26250;45.422;11.100;2022-12-11T20:17:37;8.80;92.90
40556;DHT22;26250;45.422;11.100;2022-12-11T20:20:12;8.60;93.20
40556;DHT22;26250;45.422;11.100;2022-12-11T20:22:38;8.60;93.40
40556;DHT22;26250;45.422;11.100;2022-12-11T20:25:05;8.60;93.60
40556;DHT22;26250;45.422;11.100;2022-12-11T20:27:33;8.70;93.50
40556;DHT22;26250;45.422;11.100;2022-12-11T20:30:00;8.90;93.40
40556;DHT22;26250;45.422;11.100;2022-12-11T20:32:31;9.00;93.30
40556;DHT22;26250;45.422;11.100;2022-12-11T20:34:59;9.10;93.00
40556;DHT22;26250;45.422;11.100;2022-12-11T20:37:26;9.10;93.30
40556;DHT22;26250;45.422;11.100;2022-12-11T20:39:54;8.80;93.90
40556;DHT22;26250;45.422;11.100;2022-12-11T20:42:23;8.80;93.40
40556;DHT22;26250;45.422;11.100;2022-12-11T20:44:51;9.00;92.80
40556;DHT22;26250;45.422;11.100;2022-12-11T20:47:18;9.00;92.80
40556;DHT22;26250;45.422;11.100;2022-12-11T20:49:46;9.00;92.00
40556;DHT22;26250;45.422;11.100;2022-12-11T20:52:13;9.00;91.40
40556;DHT22;26250;45.422;11.100;2022-12-11T20:54:42;8.90;90.90
40556;DHT22;26250;45.422;11.100;2022-12-11T20:57:09;8.90;90.90
40556;DHT22;26250;45.422;11.100;2022-12-11T20:59:36;8.90;91.00
40556;DHT22;26250;45.422;11.100;2022-12-11T21:02:04;8.80;90.70
40556;DHT22;26250;45.422;11.100;2022-12-11T21:04:38;8.80;90.90
40556;DHT22;26250;45.422;11.100;2022-12-11T21:07:08;8.70;90.60
40556;DHT22;26250;45.422;11.100;2022-12-11T21:09:36;8.60;90.70
40556;DHT22;26250;45.422;11.100;2022-12-11T21:12:04;8.60;90.80
40556;DHT22;26250;45.422;11.100;2022-12-11T21:14:32;8.70;91.00
40556;DHT22;26250;45.422;11.100;2022-12-11T21:17:00;8.60;90.90
40556;DHT22;26250;45.422;11.100;2022-12-11T21:19:27;8.60;91.10
40556;DHT22;26250;45.422;11.100;2022-12-11T21:21:54;8.60;91.20
40556;DHT22;26250;45.422;11.100;2022-12-11T21:24:24;8.60;91.20
40556;DHT22;26250;45.422;11.100;2022-12-11T21:26:54;8.60;90.30
40556;DHT22;26250;45.422;11.100;2022-12-11T21:29:23;8.70;90.10
40556;DHT22;26250;45.422;11.100;2022-12-11T21:31:50;8.50;90.60
40556;DHT22;26250;45.422;11.100;2022-12-11T21:34:18;8.30;91.40
40556;DHT22;26250;45.422;11.100;2022-12-11T21:36:51;8.30;91.50
40556;DHT22;26250;45.422;11.100;2022-12-11T21:39:24;8.50;90.80
40556;DHT22;26250;45.422;11.100;2022-12-11T21:41:51;8.60;90.90
40556;DHT22;26250;45.422;11.100;2022-12-11T21:44:18;8.40;91.30
40556;DHT22;26250;45.422;11.100;2022-12-11T21:47:05;8.50;91.30
40556;DHT22;26250;45.422;11.100;2022-12-11T21:49:32;8.60;90.80
40556;DHT22;26250;45.422;11.100;2022-12-11T21:51:59;8.30;91.80
40556;DHT22;26250;45.422;11.100;2022-12-11T21:54:26;8.50;91.20
40556;DHT22;26250;45.422;11.100;2022-12-11T21:56:53;8.50;90.70
40556;DHT22;26250;45.422;11.100;2022-12-11T21:59:20;8.40;90.80
40556;DHT22;26250;45.422;11.100;2022-12-11T22:01:47;8.20;90.30
40556;DHT22;26250;45.422;11.100;2022-12-11T22:04:16;8.10;90.00
40556;DHT22;26250;45.422;11.100;2022-12-11T22:06:43;8.00;90.10
40556;DHT22;26250;45.422;11.100;2022-12-11T22:09:14;7.90;90.20
40556;DHT22;26250;45.422;11.100;2022-12-11T22:11:44;7.90;90.30
40556;DHT22;26250;45.422;11.100;2022-12-11T22:14:12;8.00;90.60
40556;DHT22;26250;45.422;11.100;2022-12-11T22:16:40;7.70;90.60
40556;DHT22;26250;45.422;11.100;2022-12-11T22:19:07;7.70;91.10
40556;DHT22;26250;45.422;11.100;2022-12-11T22:21:34;8.00;90.90
40556;DHT22;26250;45.422;11.100;2022-12-11T22:24:01;8.00;90.40
40556;DHT22;26250;45.422;11.100;2022-12-11T22:26:28;7.90;90.70
40556;DHT22;26250;45.422;11.100;2022-12-11T22:28:56;8.10;90.30
40556;DHT22;26250;45.422;11.100;2022-12-11T22:31:25;7.90;90.50
40556;DHT22;26250;45.422;11.100;2022-12-11T22:33:53;7.80;90.10
40556;DHT22;26250;45.422;11.100;2022-12-11T22:36:25;7.80;90.30
40556;DHT22;26250;45.422;11.100;2022-12-11T22:38:53;7.70;90.50
40556;DHT22;26250;45.422;11.100;2022-12-11T22:41:26;7.80;90.60
40556;DHT22;26250;45.422;11.100;2022-12-11T22:43:53;7.70;90.70
40556;DHT22;26250;45.422;11.100;2022-12-11T22:46:22;7.80;90.60
40556;DHT22;26250;45.422;11.100;2022-12-11T22:48:50;7.90;90.40
40556;DHT22;26250;45.422;11.100;2022-12-11T22:51:18;7.80;89.40
40556;DHT22;26250;45.422;11.100;2022-12-11T22:53:46;7.60;90.10
40556;DHT22;26250;45.422;11.100;2022-12-11T22:56:13;7.70;90.20
40556;DHT22;26250;45.422;11.100;2022-12-11T22:58:40;7.70;88.50
40556;DHT22;26250;45.422;11.100;2022-12-11T23:01:15;7.60;88.50
40556;DHT22;26250;45.422;11.100;2022-12-11T23:03:43;7.40;89.10
